Time;durP1;ratioP1;P1;durP2;ratioP2;P2;SDS_P1;SDS_P2;PMS_P1;PMS_P2;Temp;Humidity;BMP_temperature;BMP_pressure;BME280_temperature;BME280_humidity;BME280_pressure;Samples;Min_cycle;Max_cycle;Signal;HPM_P1;HPM_P2
2022/03/13 00:09:22;;;;;;;6.38;2.40;;;10.90;76.10;;;;;;20670459;28;20046;-60
2022/03/13 00:19:24;;;;;;;4.88;1.95;;;10.90;76.50;;;;;;20669040;28;20132;-61
2022/03/13 00:29:27;;;;;;;9.35;1.90;;;10.80;77.10;;;;;;20669812;28;20407;-60
2022/03/13 00:39:28;;;;;;;6.15;1.10;;;10.80;77.30;;;;;;20667959;28;20514;-61
2022/03/13 00:49:30;;;;;;;7.18;1.88;;;10.80;77.50;;;;;;20667316;28;20065;-60
2022/03/13 00:59:32;;;;;;;7.18;1.75;;;10.70;77.90;;;;;;20677284;28;20487;-59
2022/03/13 01:09:34;;;;;;;8.25;2.50;;;10.60;78.60;;;;;;20683468;28;20054;-60
2022/03/13 01:19:37;;;;;;;8.77;2.75;;;10.60;79.00;;;;;;20682433;28;20064;-59
2022/03/13 01:29:40;;;;;;;6.95;3.28;;;10.70;79.20;;;;;;20682651;28;20054;-62
2022/03/13 01:39:42;;;;;;;9.05;2.60;;;10.70;79.30;;;;;;20681778;28;20458;-61
2022/03/13 01:49:46;;;;;;;6.95;2.90;;;10.60;80.00;;;;;;20680226;28;20042;-61
2022/03/13 01:59:56;;;;;;;7.53;3.42;;;10.60;80.50;;;;;;20678869;28;20058;-60
2022/03/13 02:09:58;;;;;;;6.57;1.20;;;10.70;81.30;;;;;;20677932;28;20055;-60
2022/03/13 02:20:02;;;;;;;0.80;0.20;;;10.70;80.70;;;;;;20678205;28;20046;-61
2022/03/13 02:30:08;;;;;;;0.73;0.20;;;10.20;78.80;;;;;;20676812;28;20136;-60
2022/03/13 02:40:20;;;;;;;1.40;0.40;;;9.70;77.80;;;;;;20677055;28;20050;-61
2022/03/13 02:50:28;;;;;;;0.65;0.20;;;9.40;77.20;;;;;;20675343;28;20391;-60
2022/03/13 03:00:48;;;;;;;2.03;0.25;;;9.20;76.90;;;;;;20674076;28;20059;-61
2022/03/13 03:10:58;;;;;;;1.30;0.20;;;9.20;77.00;;;;;;20673767;28;20057;-61
2022/03/13 03:21:03;;;;;;;2.03;0.28;;;9.20;76.40;;;;;;20687921;28;20058;-61
2022/03/13 03:31:12;;;;;;;0.47;0.30;;;9.00;76.20;;;;;;20672879;28;20100;-60
2022/03/13 03:41:16;;;;;;;1.05;0.40;;;9.10;76.20;;;;;;20671714;28;20054;-60
2022/03/13 03:51:21;;;;;;;1.20;0.30;;;9.00;76.30;;;;;;20670304;28;20479;-60
2022/03/13 04:01:41;;;;;;;0.65;0.40;;;9.20;76.30;;;;;;20670886;28;20411;-60
2022/03/13 04:11:47;;;;;;;0.75;0.20;;;9.30;76.00;;;;;;20669312;28;20050;-60
2022/03/13 04:21:51;;;;;;;0.00;0.00;;;9.30;76.20;;;;;;20669010;28;20100;-58
2022/03/13 04:31:57;;;;;;;0.75;0.20;;;9.20;75.60;;;;;;20667542;28;20186;-59
2022/03/13 04:42:10;;;;;;;0.40;0.20;;;9.20;74.40;;;;;;20667480;28;20057;-60
2022/03/13 04:52:28;;;;;;;3.70;0.35;;;9.10;72.80;;;;;;20667297;28;20065;-60
2022/03/13 05:02:33;;;;;;;1.35;0.40;;;9.10;72.30;;;;;;20666443;28;20483;-61
2022/03/13 05:12:38;;;;;;;1.15;0.40;;;9.10;72.40;;;;;;20666859;28;20419;-60
2022/03/13 05:22:41;;;;;;;2.03;0.40;;;8.90;71.80;;;;;;20666373;28;20047;-59
2022/03/13 05:32:44;;;;;;;2.10;0.38;;;8.80;72.70;;;;;;20665245;28;20051;-63
2022/03/13 05:42:58;;;;;;;3.10;0.45;;;8.70;73.10;;;;;;20671248;28;20050;-60
2022/03/13 05:53:01;;;;;;;2.30;0.43;;;8.70;73.00;;;;;;20680889;28;20487;-60
2022/03/13 06:03:21;;;;;;;1.67;0.40;;;8.60;73.30;;;;;;20680577;28;20038;-62
2022/03/13 06:13:24;;;;;;;2.97;0.70;;;8.40;73.80;;;;;;20679615;28;20319;-61
2022/03/13 06:23:28;;;;;;;2.60;0.40;;;8.30;74.50;;;;;;20679174;28;20583;-59
2022/03/13 06:33:30;;;;;;;1.45;0.43;;;8.20;74.50;;;;;;20679951;28;20384;-59
2022/03/13 06:43:34;;;;;;;4.88;0.50;;;8.20;74.10;;;;;;20677952;28;20046;-60
2022/03/13 06:53:36;;;;;;;2.75;0.38;;;8.20;72.60;;;;;;20677632;28;20082;-60
2022/03/13 07:03:39;;;;;;;2.50;0.63;;;8.30;71.80;;;;;;20677082;28;20077;-62
2022/03/13 07:13:44;;;;;;;5.55;0.80;;;8.40;71.50;;;;;;20675613;28;20060;-61
2022/03/13 07:23:46;;;;;;;3.38;0.80;;;8.60;70.80;;;;;;20676364;28;20138;-60
2022/03/13 07:33:47;;;;;;;7.57;1.10;;;8.80;70.30;;;;;;20673734;28;20054;-62
2022/03/13 07:43:50;;;;;;;2.20;0.52;;;8.90;69.70;;;;;;20673086;28;20052;-61
2022/03/13 07:53:52;;;;;;;4.15;0.80;;;9.00;68.80;;;;;;20671114;28;20054;-60
2022/03/13 08:03:54;;;;;;;3.42;0.70;;;9.20;67.30;;;;;;20671167;28;20061;-61
2022/03/13 08:13:56;;;;;;;3.70;0.60;;;9.40;66.40;;;;;;20670330;28;20051;-60
2022/03/13 08:23:59;;;;;;;7.38;0.82;;;9.50;65.50;;;;;;20669295;28;20050;-61
2022/03/13 08:34:07;;;;;;;3.33;0.63;;;9.80;65.30;;;;;;20671068;28;20054;-60
2022/03/13 08:44:09;;;;;;;2.53;0.70;;;10.00;63.60;;;;;;20669920;28;20047;-59
2022/03/13 08:54:10;;;;;;;2.65;1.20;;;10.20;62.70;;;;;;20670385;28;20057;-61
2022/03/13 09:04:13;;;;;;;3.35;0.80;;;10.60;61.20;;;;;;20668965;28;20180;-60
2022/03/13 09:14:15;;;;;;;1.80;0.63;;;10.90;60.80;;;;;;20668275;28;20058;-62
2022/03/13 09:24:17;;;;;;;5.85;0.93;;;11.20;60.10;;;;;;20684295;28;20559;-61
2022/03/13 09:34:19;;;;;;;2.85;0.50;;;11.20;59.10;;;;;;20680764;28;20136;-62
2022/03/13 09:44:24;;;;;;;3.83;0.73;;;11.50;57.60;;;;;;20681380;28;20042;-62
2022/03/13 09:54:26;;;;;;;3.63;1.35;;;11.60;56.20;;;;;;20679987;28;20073;-62
2022/03/13 10:04:29;;;;;;;1.65;0.43;;;12.00;55.30;;;;;;20680631;28;20057;-61
2022/03/13 10:14:31;;;;;;;3.08;0.70;;;12.00;54.40;;;;;;20681592;28;20054;-62
2022/03/13 10:24:45;;;;;;;5.30;1.42;;;12.20;53.40;;;;;;20678774;28;20042;-60
2022/03/13 10:34:54;;;;;;;6.03;0.73;;;12.30;53.00;;;;;;20676074;28;20057;-62
2022/03/13 10:44:58;;;;;;;2.55;0.50;;;12.50;51.30;;;;;;20676646;28;20043;-61
2022/03/13 10:55:18;;;;;;;2.03;0.30;;;12.50;49.90;;;;;;20676432;28;20104;-63
2022/03/13 11:05:20;;;;;;;1.77;0.70;;;12.70;48.30;;;;;;20674460;28;20046;-61
2022/03/13 11:15:27;;;;;;;10.98;1.83;;;12.80;47.30;;;;;;20673655;28;20141;-62
2022/03/13 11:25:29;;;;;;;6.00;1.00;;;12.90;47.30;;;;;;20673010;28;20050;-62
2022/03/13 11:35:32;;;;;;;3.63;0.82;;;13.10;46.90;;;;;;20671255;28;20046;-63
2022/03/13 11:45:38;;;;;;;1.10;0.30;;;13.60;46.40;;;;;;20671140;28;20050;-61
2022/03/13 11:55:59;;;;;;;3.35;0.60;;;13.70;44.90;;;;;;20670664;28;20049;-62
2022/03/13 12:06:00;;;;;;;2.60;0.80;;;13.90;43.20;;;;;;20669283;28;20050;-61
2022/03/13 12:16:12;;;;;;;2.53;0.70;;;14.40;43.30;;;;;;20669377;28;20081;-63
2022/03/13 12:26:28;;;;;;;3.50;0.68;;;14.50;42.90;;;;;;20669357;28;20120;-62
2022/03/13 12:36:45;;;;;;;1.10;0.47;;;14.50;42.20;;;;;;20419459;29;20493;-62
2022/03/13 12:46:51;;;;;;;1.77;0.60;;;14.60;41.70;;;;;;20419174;29;20072;-61
2022/03/13 12:56:58;;;;;;;1.83;0.50;;;15.10;41.30;;;;;;20418288;28;20500;-61
2022/03/13 13:07:00;;;;;;;3.58;0.52;;;15.20;39.40;;;;;;20466222;28;20046;-63
2022/03/13 13:17:10;;;;;;;3.30;0.80;;;15.20;38.80;;;;;;20667637;28;20046;-62
2022/03/13 13:27:30;;;;;;;2.72;1.13;;;15.10;38.50;;;;;;20677292;28;20054;-62
2022/03/13 13:37:33;;;;;;;2.38;1.10;;;15.00;38.70;;;;;;20688179;28;20113;-62
2022/03/13 13:47:34;;;;;;;5.28;2.08;;;15.30;38.30;;;;;;20666023;28;20057;-62
2022/03/13 13:57:36;;;;;;;3.28;1.50;;;15.50;38.80;;;;;;20667379;28;20050;-62
2022/03/13 14:07:38;;;;;;;2.88;1.17;;;15.60;38.90;;;;;;20675856;28;20058;-61
2022/03/13 14:17:40;;;;;;;3.47;1.40;;;15.60;39.00;;;;;;20679929;28;20046;-61
2022/03/13 14:27:42;;;;;;;1.95;0.50;;;15.70;39.40;;;;;;20677742;28;20145;-63
2022/03/13 14:37:43;;;;;;;1.67;0.47;;;15.70;40.20;;;;;;20677703;28;20077;-63
2022/03/13 14:47:46;;;;;;;1.52;0.55;;;15.50;40.70;;;;;;20676828;28;20051;-61
2022/03/13 14:57:48;;;;;;;6.10;0.70;;;15.60;41.70;;;;;;20676809;28;20483;-60
2022/03/13 15:07:49;;;;;;;1.45;0.60;;;15.30;42.20;;;;;;20674786;28;20050;-62
2022/03/13 15:17:54;;;;;;;4.53;1.42;;;15.00;42.70;;;;;;20673308;28;20119;-62
2022/03/13 15:27:56;;;;;;;1.98;0.90;;;15.00;43.20;;;;;;20672333;28;20058;-61
2022/03/13 15:37:58;;;;;;;2.15;0.80;;;14.90;43.20;;;;;;20672052;28;20495;-62
2022/03/13 15:48:00;;;;;;;3.83;1.15;;;15.00;43.00;;;;;;20671154;28;20051;-62
2022/03/13 15:58:03;;;;;;;1.63;0.55;;;15.00;43.20;;;;;;20670888;28;20419;-61
2022/03/13 16:08:05;;;;;;;1.63;0.75;;;15.10;43.50;;;;;;20669415;28;20054;-61
2022/03/13 16:18:10;;;;;;;3.38;0.75;;;15.20;43.00;;;;;;20668758;28;20053;-61
2022/03/13 16:28:12;;;;;;;2.30;0.88;;;15.00;43.20;;;;;;20669188;28;20153;-62
2022/03/13 16:38:14;;;;;;;2.22;0.32;;;14.80;43.30;;;;;;20669506;28;20100;-62
2022/03/13 16:48:16;;;;;;;2.03;0.50;;;14.80;43.50;;;;;;20667493;28;20050;-62
2022/03/13 16:58:18;;;;;;;5.85;1.08;;;14.70;43.70;;;;;;20668465;28;20399;-62
2022/03/13 17:08:19;;;;;;;1.98;0.77;;;14.50;44.50;;;;;;20665904;28;20046;-61
2022/03/13 17:18:21;;;;;;;2.67;0.90;;;14.40;45.10;;;;;;20666550;28;20053;-65
2022/03/13 17:28:23;;;;;;;2.22;0.85;;;14.30;45.30;;;;;;20666332;28;20046;-61
2022/03/13 17:38:25;;;;;;;2.47;0.90;;;14.20;45.80;;;;;;20671354;28;20053;-62
2022/03/13 17:48:26;;;;;;;2.97;1.10;;;14.10;46.60;;;;;;20683558;28;20617;-63
2022/03/13 17:58:28;;;;;;;4.22;1.38;;;14.00;47.00;;;;;;20680937;28;20054;-62
2022/03/13 18:08:30;;;;;;;4.80;1.67;;;13.90;47.50;;;;;;20680319;28;20138;-62
2022/03/13 18:18:31;;;;;;;4.70;1.83;;;13.80;48.10;;;;;;20677723;28;20054;-61
2022/03/13 18:28:33;;;;;;;3.88;1.77;;;13.70;48.70;;;;;;20692532;28;20101;-63
2022/03/13 18:38:35;;;;;;;5.13;2.08;;;13.70;49.20;;;;;;20677037;28;20058;-63
2022/03/13 18:48:36;;;;;;;4.95;2.30;;;13.50;49.90;;;;;;20676304;28;20077;-63
2022/03/13 18:58:40;;;;;;;5.75;1.83;;;13.40;50.30;;;;;;20675428;28;20044;-63
2022/03/13 19:08:43;;;;;;;4.32;1.85;;;13.40;50.40;;;;;;20674923;28;20060;-63
2022/03/13 19:18:44;;;;;;;3.63;1.60;;;13.50;50.40;;;;;;20697701;28;20162;-62
2022/03/13 19:28:46;;;;;;;3.75;1.40;;;13.50;50.40;;;;;;20675904;28;20136;-63
2022/03/13 19:38:51;;;;;;;5.70;2.50;;;13.40;50.30;;;;;;20672221;28;20133;-62
2022/03/13 19:48:53;;;;;;;6.45;2.70;;;13.40;50.30;;;;;;20671755;28;20050;-62
2022/03/13 19:58:54;;;;;;;5.40;2.33;;;13.30;50.40;;;;;;20669802;28;20053;-64
2022/03/13 20:08:56;;;;;;;7.43;2.85;;;13.20;50.50;;;;;;20672553;28;20057;-63
2022/03/13 20:18:58;;;;;;;5.28;2.40;;;13.00;50.80;;;;;;20669428;28;20609;-61
2022/03/13 20:28:59;;;;;;;6.80;2.20;;;12.80;51.30;;;;;;20666457;28;20411;-62
2022/03/13 20:39:01;;;;;;;5.32;2.30;;;12.70;51.70;;;;;;20667637;28;20392;-62
2022/03/13 20:49:06;;;;;;;4.43;2.13;;;12.60;52.20;;;;;;20667112;28;20521;-63
2022/03/13 20:59:10;;;;;;;4.38;2.30;;;12.50;52.30;;;;;;20666086;28;20128;-62
2022/03/13 21:09:12;;;;;;;5.22;1.90;;;12.50;52.30;;;;;;20666002;28;20137;-62
2022/03/13 21:19:17;;;;;;;4.10;1.80;;;12.40;52.50;;;;;;20681113;28;20081;-62
2022/03/13 21:29:25;;;;;;;4.40;1.98;;;12.40;52.60;;;;;;20681941;28;20058;-63
2022/03/13 21:39:26;;;;;;;6.30;3.38;;;12.40;52.60;;;;;;20681078;28;20133;-61
2022/03/13 21:49:28;;;;;;;3.85;1.73;;;12.40;52.80;;;;;;20681344;28;20089;-63
2022/03/13 21:59:30;;;;;;;3.80;1.90;;;12.40;52.60;;;;;;20678455;28;20124;-63
2022/03/13 22:09:33;;;;;;;4.47;1.30;;;12.30;52.70;;;;;;20679579;28;20079;-62
2022/03/13 22:19:35;;;;;;;3.10;1.27;;;12.20;52.90;;;;;;20678676;28;20073;-62
2022/03/13 22:29:37;;;;;;;2.75;1.15;;;12.20;52.70;;;;;;20678292;28;20096;-61
2022/03/13 22:39:39;;;;;;;4.45;1.40;;;12.10;52.80;;;;;;20676906;28;20049;-61
2022/03/13 22:49:43;;;;;;;2.78;1.30;;;12.00;53.20;;;;;;20675878;28;20418;-62
2022/03/13 22:59:45;;;;;;;5.28;1.63;;;12.00;53.40;;;;;;20674991;28;20050;-61
2022/03/13 23:09:47;;;;;;;2.90;1.33;;;12.00;53.60;;;;;;20675345;28;20108;-61
2022/03/13 23:19:50;;;;;;;4.45;1.58;;;12.00;53.80;;;;;;20673466;28;20054;-63
2022/03/13 23:29:52;;;;;;;3.33;1.55;;;11.80;54.40;;;;;;20672599;28;20054;-62
2022/03/13 23:39:57;;;;;;;3.70;1.38;;;11.80;54.70;;;;;;20672883;28;20047;-61
2022/03/13 23:49:59;;;;;;;2.03;1.08;;;11.60;55.20;;;;;;20671902;28;20054;-61
